Little Dixie, Arkansas
Current Conditions -  °F | °C
As of 8:56 AM on Tuesday 21 Oct 2014 (Local Time) from KSRC Reporting Station
Clear Clear  
Wind Chill: 61°   Ceiling: Unl
Heat Index: 61°   Visibility: 10mi
Dew Point: 56°   Wind: 6mph
Humidity: 83%   Direction: 360°N
Pressure: 30.13"   Gusts: NA
Location:  34.9712°N, 91.571°W
Report Text: KSRC 211356Z AUTO 36005KT 10SM CLR 16/13 A3013 RMK AO2 SLP208 T01610133 TSNO
Loading
Personal Weather Stations






























Interactive Weather Map
Tropical Storm Tracking
New forecast layout! Learn more

10-Day Weather Forecast

Advertisements
Track Severe Weather on mobile